Paxico, KS

3:16 AM CDT on May 07, 2015 (GMT -0500)
WTC - Paxico | | Change Station
CLOSE
Current Station
Personal Weather Station
Location: Paxico, KS
Elevation: 1007 ft
Nearby Weather Stations

Elev 1007 ft 39.07 °N, 96.17 °W | Updated 2 seconds ago

Mostly Cloudy
Mostly Cloudy
67.5 °F
Feels Like 67.5 °F
N
0.0
Wind Variable Wind from SE
Gusts 2.0 mph

Today
High -- | Low -- °F
--% Chance of Precip.
Yesterday
High -- | Low -- °F
Precip. -- in
6:19 AM 8:23 PM
Waning Gibbous, 89% visible
Pressure 29.70 in
Visibility 10.0 miles
Clouds Mostly Cloudy 11000 ft
Dew Point 59 °F
Humidity 75%
Rainfall 0.00 in
Snow Depth Not available.
UV 0 out of 12
Pollen 4.10 out of 12
Air Quality Not available.
Flu Activity Sporadic
METAR KMHK 070752Z AUTO 20009G19KT 10SM BKN110 21/14 A2972 RMK AO2 SLP058 T02060139

More Conditions Fewer Conditions

Pressure 29.70 in
Visibility 10.0 miles
Clouds Mostly Cloudy 11000 ft
Dew Point 59 °F
Humidity 75%
Rainfall 0.00 in
Snow Depth Not available.
UV 0 out of 12
Pollen 4.10 out of 12
Air Quality Not available.
Flu Activity Sporadic
METAR KMHK 070752Z AUTO 20009G19KT 10SM BKN110 21/14 A2972 RMK AO2 SLP058 T02060139

More Conditions Fewer Conditions

10-Day Weather Forecast

Almanac

Astronomy

May. 07, 2015 Rise Set
Actual Time
Civil Twilight
Nautical Twilight
Astronomical Twilight
Moon
Length of Visible Light
Length of Day
Tomorrow will be .
, % of the Moon is Illuminated

Today's Extremes

State Highs State Lows

Community

WunderPhotos

Upload Photos

1,819,126 photos uploaded!

WunderBlogs® & News

Nearby

Air Quality

  Air Quality AQ Index Pollutant
Not available.

Snow Depth

Station Depth Elevation

Earthquake Activity

City Distance Mag. Time & Date
Minimum magnitude displayed is 2.5.

Coastal Water Temperatures

Place Temperature

Stations

Nearby Weather Stations

Station Location Temp. Windchill Dew Point Humidity Wind Precip. Elev Updated Type